sensor_id;sensor_type;location;lat;lon;timestamp;noise_LAeq;noise_LA_min;noise_LA_max;noise_LA01;noise_LA95
37223;Laerm;28026;48.562;14.440;2022-08-03T00:00:24;38.89;34.34;42.09;;
37223;Laerm;28026;48.562;14.440;2022-08-03T00:02:55;40.04;33.90;45.69;;
37223;Laerm;28026;48.562;14.440;2022-08-03T00:05:26;38.21;33.44;42.53;;
37223;Laerm;28026;48.562;14.440;2022-08-03T00:07:59;37.44;31.68;41.22;;
37223;Laerm;28026;48.562;14.440;2022-08-03T00:10:30;37.27;30.89;41.89;;
37223;Laerm;28026;48.562;14.440;2022-08-03T00:13:01;37.59;30.89;41.06;;
37223;Laerm;28026;48.562;14.440;2022-08-03T00:15:32;37.24;30.89;45.27;;
37223;Laerm;28026;48.562;14.440;2022-08-03T00:18:03;40.25;32.35;43.72;;
37223;Laerm;28026;48.562;14.440;2022-08-03T00:20:35;37.84;30.89;41.61;;
37223;Laerm;28026;48.562;14.440;2022-08-03T00:23:06;37.54;31.68;41.53;;
37223;Laerm;28026;48.562;14.440;2022-08-03T00:25:37;37.69;31.68;41.96;;
37223;Laerm;28026;48.562;14.440;2022-08-03T00:28:09;38.64;32.93;42.71;;
37223;Laerm;28026;48.562;14.440;2022-08-03T00:30:40;39.38;34.31;42.85;;
37223;Laerm;28026;48.562;14.440;2022-08-03T00:33:11;38.78;33.90;43.58;;
37223;Laerm;28026;48.562;14.440;2022-08-03T00:35:42;38.54;32.00;42.41;;
37223;Laerm;28026;48.562;14.440;2022-08-03T00:38:13;38.06;33.90;42.16;;
37223;Laerm;28026;48.562;14.440;2022-08-03T00:40:44;38.37;33.44;42.59;;
37223;Laerm;28026;48.562;14.440;2022-08-03T00:43:15;40.48;35.04;44.11;;
37223;Laerm;28026;48.562;14.440;2022-08-03T00:45:47;40.35;33.90;44.19;;
37223;Laerm;28026;48.562;14.440;2022-08-03T00:48:18;38.15;32.93;42.76;;
37223;Laerm;28026;48.562;14.440;2022-08-03T00:50:49;37.59;31.68;41.96;;
37223;Laerm;28026;48.562;14.440;2022-08-03T00:53:21;37.51;31.68;42.82;;
37223;Laerm;28026;48.562;14.440;2022-08-03T00:55:52;37.61;30.89;42.41;;
37223;Laerm;28026;48.562;14.440;2022-08-03T00:58:23;38.22;33.90;43.14;;
37223;Laerm;28026;48.562;14.440;2022-08-03T01:00:54;37.75;29.92;41.96;;
37223;Laerm;28026;48.562;14.440;2022-08-03T01:03:25;38.23;33.90;42.98;;
37223;Laerm;28026;48.562;14.440;2022-08-03T01:11:51;38.89;33.44;48.32;;
37223;Laerm;28026;48.562;14.440;2022-08-03T01:14:37;40.15;33.90;49.07;;
37223;Laerm;28026;48.562;14.440;2022-08-03T01:17:22;38.54;33.90;42.88;;
37223;Laerm;28026;48.562;14.440;2022-08-03T01:20:09;37.18;31.68;44.65;;
37223;Laerm;28026;48.562;14.440;2022-08-03T01:23:58;37.20;32.35;45.48;;
37223;Laerm;28026;48.562;14.440;2022-08-03T01:27:06;37.09;28.67;46.78;;
37223;Laerm;28026;48.562;14.440;2022-08-03T01:30:11;38.57;32.35;66.89;;
37223;Laerm;28026;48.562;14.440;2022-08-03T01:33:02;37.91;32.93;43.90;;
37223;Laerm;28026;48.562;14.440;2022-08-03T01:36:02;38.41;33.44;44.47;;
37223;Laerm;28026;48.562;14.440;2022-08-03T01:38:52;37.77;32.93;44.87;;
37223;Laerm;28026;48.562;14.440;2022-08-03T01:41:35;38.64;33.44;43.81;;
37223;Laerm;28026;48.562;14.440;2022-08-03T01:44:11;39.50;34.31;47.81;;
37223;Laerm;28026;48.562;14.440;2022-08-03T01:46:45;39.55;34.69;43.86;;
37223;Laerm;28026;48.562;14.440;2022-08-03T01:49:18;40.16;33.90;48.36;;
37223;Laerm;28026;48.562;14.440;2022-08-03T01:51:52;38.44;33.55;45.17;;
37223;Laerm;28026;48.562;14.440;2022-08-03T01:54:25;38.25;33.90;47.95;;
37223;Laerm;28026;48.562;14.440;2022-08-03T01:56:58;38.42;32.35;47.55;;
37223;Laerm;28026;48.562;14.440;2022-08-03T01:59:34;38.22;33.44;41.68;;
37223;Laerm;28026;48.562;14.440;2022-08-03T02:02:11;38.69;33.44;43.39;;
37223;Laerm;28026;48.562;14.440;2022-08-03T02:04:46;39.52;33.90;44.73;;
37223;Laerm;28026;48.562;14.440;2022-08-03T02:07:19;37.95;32.35;41.96;;
37223;Laerm;28026;48.562;14.440;2022-08-03T02:09:53;37.87;33.90;46.45;;
37223;Laerm;28026;48.562;14.440;2022-08-03T02:12:27;38.72;32.93;60.50;;
37223;Laerm;28026;48.562;14.440;2022-08-03T02:15:01;39.77;35.36;44.87;;
37223;Laerm;28026;48.562;14.440;2022-08-03T02:17:34;37.90;32.93;42.35;;
37223;Laerm;28026;48.562;14.440;2022-08-03T02:20:10;38.37;33.44;46.28;;
37223;Laerm;28026;48.562;14.440;2022-08-03T02:22:43;38.15;34.31;42.88;;
37223;Laerm;28026;48.562;14.440;2022-08-03T02:25:16;39.19;34.31;43.04;;
37223;Laerm;28026;48.562;14.440;2022-08-03T02:27:57;38.72;34.31;48.55;;
37223;Laerm;28026;48.562;14.440;2022-08-03T02:30:36;38.79;33.90;45.46;;
37223;Laerm;28026;48.562;14.440;2022-08-03T02:33:21;38.65;33.44;55.40;;
37223;Laerm;28026;48.562;14.440;2022-08-03T02:35:59;43.67;35.04;71.87;;
37223;Laerm;28026;48.562;14.440;2022-08-03T02:38:36;39.32;34.69;43.99;;
37223;Laerm;28026;48.562;14.440;2022-08-03T02:41:34;40.23;35.01;43.99;;
37223;Laerm;28026;48.562;14.440;2022-08-03T02:44:11;42.42;36.20;58.02;;
37223;Laerm;28026;48.562;14.440;2022-08-03T02:46:48;39.15;34.69;48.90;;
37223;Laerm;28026;48.562;14.440;2022-08-03T02:49:26;41.89;37.12;48.34;;
37223;Laerm;28026;48.562;14.440;2022-08-03T02:51:59;40.51;34.69;47.95;;
37223;Laerm;28026;48.562;14.440;2022-08-03T02:54:33;39.34;33.44;44.76;;
37223;Laerm;28026;48.562;14.440;2022-08-03T02:57:10;41.06;34.31;47.08;;
37223;Laerm;28026;48.562;14.440;2022-08-03T02:59:43;40.76;36.69;50.59;;
37223;Laerm;28026;48.562;14.440;2022-08-03T03:02:17;41.00;36.20;48.21;;
37223;Laerm;28026;48.562;14.440;2022-08-03T03:04:52;40.17;35.94;47.86;;
37223;Laerm;28026;48.562;14.440;2022-08-03T03:07:23;40.55;35.66;47.40;;
37223;Laerm;28026;48.562;14.440;2022-08-03T03:09:55;40.09;35.36;44.31;;
37223;Laerm;28026;48.562;14.440;2022-08-03T03:12:28;39.79;35.36;51.13;;
37223;Laerm;28026;48.562;14.440;2022-08-03T03:15:00;41.18;35.66;47.50;;
37223;Laerm;28026;48.562;14.440;2022-08-03T03:17:34;40.70;36.69;46.66;;
37223;Laerm;28026;48.562;14.440;2022-08-03T03:20:08;41.17;37.32;55.68;;
37223;Laerm;28026;48.562;14.440;2022-08-03T03:22:40;41.58;36.20;53.79;;
37223;Laerm;28026;48.562;14.440;2022-08-03T03:25:11;40.69;35.66;46.25;;
37223;Laerm;28026;48.562;14.440;2022-08-03T03:27:43;41.15;36.69;51.63;;
37223;Laerm;28026;48.562;14.440;2022-08-03T03:30:15;43.13;37.12;53.88;;
37223;Laerm;28026;48.562;14.440;2022-08-03T03:32:46;42.16;37.70;51.13;;
37223;Laerm;28026;48.562;14.440;2022-08-03T03:35:17;40.91;36.45;50.18;;
37223;Laerm;28026;48.562;14.440;2022-08-03T03:37:49;39.88;35.94;50.12;;
37223;Laerm;28026;48.562;14.440;2022-08-03T03:40:21;39.23;35.04;52.16;;
37223;Laerm;28026;48.562;14.440;2022-08-03T03:42:52;40.18;33.90;50.18;;
37223;Laerm;28026;48.562;14.440;2022-08-03T03:45:23;40.41;35.94;50.47;;
37223;Laerm;28026;48.562;14.440;2022-08-03T03:47:54;42.20;36.45;51.44;;
37223;Laerm;28026;48.562;14.440;2022-08-03T03:50:27;44.71;38.95;54.09;;
37223;Laerm;28026;48.562;14.440;2022-08-03T03:53:03;41.48;37.32;52.31;;
37223;Laerm;28026;48.562;14.440;2022-08-03T03:55:35;41.34;35.04;48.12;;
37223;Laerm;28026;48.562;14.440;2022-08-03T03:58:07;41.15;36.45;53.66;;
37223;Laerm;28026;48.562;14.440;2022-08-03T04:00:38;39.86;35.66;53.86;;
37223;Laerm;28026;48.562;14.440;2022-08-03T04:03:10;41.87;36.69;56.28;;
37223;Laerm;28026;48.562;14.440;2022-08-03T04:05:42;43.28;38.21;56.28;;
37223;Laerm;28026;48.562;14.440;2022-08-03T04:08:32;41.58;38.21;55.78;;
37223;Laerm;28026;48.562;14.440;2022-08-03T04:11:32;42.29;38.37;55.23;;
37223;Laerm;28026;48.562;14.440;2022-08-03T04:14:22;41.37;37.12;52.70;;
37223;Laerm;28026;48.562;14.440;2022-08-03T04:17:07;41.16;37.32;56.42;;
37223;Laerm;28026;48.562;14.440;2022-08-03T04:19:48;44.19;38.81;55.80;;
37223;Laerm;28026;48.562;14.440;2022-08-03T04:22:29;45.08;40.80;56.36;;
37223;Laerm;28026;48.562;14.440;2022-08-03T04:25:09;42.08;37.52;58.28;;
37223;Laerm;28026;48.562;14.440;2022-08-03T04:27:49;40.41;35.94;59.45;;
37223;Laerm;28026;48.562;14.440;2022-08-03T04:30:26;41.38;35.94;53.35;;
37223;Laerm;28026;48.562;14.440;2022-08-03T04:33:01;41.14;36.91;55.36;;
37223;Laerm;28026;48.562;14.440;2022-08-03T04:35:35;40.70;35.36;60.43;;
37223;Laerm;28026;48.562;14.440;2022-08-03T04:38:07;41.41;35.94;53.03;;
37223;Laerm;28026;48.562;14.440;2022-08-03T04:40:45;42.32;37.32;55.51;;
37223;Laerm;28026;48.562;14.440;2022-08-03T04:43:21;42.12;36.91;56.10;;
37223;Laerm;28026;48.562;14.440;2022-08-03T04:45:53;41.44;37.52;60.12;;
37223;Laerm;28026;48.562;14.440;2022-08-03T04:48:27;41.52;37.32;51.75;;
37223;Laerm;28026;48.562;14.440;2022-08-03T04:50:59;40.74;35.94;55.48;;
37223;Laerm;28026;48.562;14.440;2022-08-03T04:53:30;41.48;36.45;58.35;;
37223;Laerm;28026;48.562;14.440;2022-08-03T04:56:05;42.35;37.52;57.22;;
37223;Laerm;28026;48.562;14.440;2022-08-03T04:58:36;41.08;36.45;50.54;;
37223;Laerm;28026;48.562;14.440;2022-08-03T05:01:07;40.37;36.20;53.89;;
37223;Laerm;28026;48.562;14.440;2022-08-03T05:03:38;41.68;35.94;68.08;;
37223;Laerm;28026;48.562;14.440;2022-08-03T05:06:10;39.98;35.04;51.74;;
37223;Laerm;28026;48.562;14.440;2022-08-03T05:08:41;39.85;35.36;53.64;;
37223;Laerm;28026;48.562;14.440;2022-08-03T05:11:12;41.48;37.52;53.29;;
37223;Laerm;28026;48.562;14.440;2022-08-03T05:13:44;41.14;37.32;50.09;;
37223;Laerm;28026;48.562;14.440;2022-08-03T05:16:15;41.17;37.52;51.47;;
37223;Laerm;28026;48.562;14.440;2022-08-03T05:18:46;43.01;38.52;51.82;;
37223;Laerm;28026;48.562;14.440;2022-08-03T05:21:17;43.37;38.47;54.91;;
37223;Laerm;28026;48.562;14.440;2022-08-03T05:23:48;41.14;36.45;55.23;;
37223;Laerm;28026;48.562;14.440;2022-08-03T05:26:20;40.78;36.69;54.27;;
37223;Laerm;28026;48.562;14.440;2022-08-03T05:28:52;41.40;37.12;45.60;;
37223;Laerm;28026;48.562;14.440;2022-08-03T05:31:23;41.27;37.52;49.14;;
37223;Laerm;28026;48.562;14.440;2022-08-03T05:33:55;41.30;36.34;53.55;;
37223;Laerm;28026;48.562;14.440;2022-08-03T05:36:26;40.76;35.94;53.30;;
37223;Laerm;28026;48.562;14.440;2022-08-03T05:38:57;39.93;36.69;51.63;;
37223;Laerm;28026;48.562;14.440;2022-08-03T05:41:28;41.77;36.45;51.39;;
37223;Laerm;28026;48.562;14.440;2022-08-03T05:43:59;40.43;36.91;45.14;;
37223;Laerm;28026;48.562;14.440;2022-08-03T05:46:31;39.23;35.36;48.95;;
37223;Laerm;28026;48.562;14.440;2022-08-03T05:49:02;40.38;36.45;43.44;;
37223;Laerm;28026;48.562;14.440;2022-08-03T05:51:34;40.62;36.45;44.31;;
37223;Laerm;28026;48.562;14.440;2022-08-03T05:54:05;41.18;36.98;48.08;;
37223;Laerm;28026;48.562;14.440;2022-08-03T05:56:36;42.10;38.05;46.23;;
37223;Laerm;28026;48.562;14.440;2022-08-03T05:59:07;42.85;37.52;64.32;;
37223;Laerm;28026;48.562;14.440;2022-08-03T06:01:38;40.73;37.12;57.09;;
37223;Laerm;28026;48.562;14.440;2022-08-03T06:04:09;40.69;35.86;53.68;;
37223;Laerm;28026;48.562;14.440;2022-08-03T06:06:40;39.96;36.20;44.65;;
37223;Laerm;28026;48.562;14.440;2022-08-03T06:09:11;39.08;35.94;51.40;;
37223;Laerm;28026;48.562;14.440;2022-08-03T06:11:43;39.02;35.36;52.08;;
37223;Laerm;28026;48.562;14.440;2022-08-03T06:14:14;41.47;35.66;49.91;;
37223;Laerm;28026;48.562;14.440;2022-08-03T06:16:44;40.53;36.20;54.46;;
37223;Laerm;28026;48.562;14.440;2022-08-03T06:19:15;40.09;35.66;67.57;;
37223;Laerm;28026;48.562;14.440;2022-08-03T06:21:46;39.81;35.86;50.85;;
37223;Laerm;28026;48.562;14.440;2022-08-03T06:24:17;46.26;36.98;77.36;;
37223;Laerm;28026;48.562;14.440;2022-08-03T06:26:48;39.63;35.04;54.79;;
37223;Laerm;28026;48.562;14.440;2022-08-03T06:29:19;39.51;35.36;48.16;;
37223;Laerm;28026;48.562;14.440;2022-08-03T06:31:50;40.16;35.94;50.05;;
37223;Laerm;28026;48.562;14.440;2022-08-03T06:34:21;40.06;36.20;49.02;;
37223;Laerm;28026;48.562;14.440;2022-08-03T06:36:52;39.72;36.69;43.04;;
37223;Laerm;28026;48.562;14.440;2022-08-03T06:39:24;40.93;37.12;47.46;;
37223;Laerm;28026;48.562;14.440;2022-08-03T06:41:55;40.83;37.52;53.34;;
37223;Laerm;28026;48.562;14.440;2022-08-03T06:44:26;42.34;37.88;63.12;;
37223;Laerm;28026;48.562;14.440;2022-08-03T06:46:57;42.54;38.52;53.22;;
37223;Laerm;28026;48.562;14.440;2022-08-03T06:49:28;43.34;38.52;60.53;;
37223;Laerm;28026;48.562;14.440;2022-08-03T06:51:59;42.19;38.05;53.57;;
37223;Laerm;28026;48.562;14.440;2022-08-03T06:54:30;42.61;38.05;61.52;;
37223;Laerm;28026;48.562;14.440;2022-08-03T06:57:01;51.66;40.53;66.38;;
37223;Laerm;28026;48.562;14.440;2022-08-03T06:59:32;45.14;38.05;65.45;;
37223;Laerm;28026;48.562;14.440;2022-08-03T07:02:04;51.12;38.95;67.83;;
37223;Laerm;28026;48.562;14.440;2022-08-03T07:04:35;45.38;39.46;61.81;;
37223;Laerm;28026;48.562;14.440;2022-08-03T07:07:06;41.92;38.05;53.90;;
37223;Laerm;28026;48.562;14.440;2022-08-03T07:09:37;42.32;36.98;57.79;;
37223;Laerm;28026;48.562;14.440;2022-08-03T07:12:08;41.88;38.37;60.86;;
37223;Laerm;28026;48.562;14.440;2022-08-03T07:14:39;45.68;36.45;69.61;;
37223;Laerm;28026;48.562;14.440;2022-08-03T07:17:10;46.01;37.12;68.35;;
37223;Laerm;28026;48.562;14.440;2022-08-03T07:19:41;42.58;36.69;63.26;;
37223;Laerm;28026;48.562;14.440;2022-08-03T07:22:11;43.48;38.21;69.11;;
37223;Laerm;28026;48.562;14.440;2022-08-03T07:24:42;46.20;38.05;66.75;;
37223;Laerm;28026;48.562;14.440;2022-08-03T07:27:15;49.21;38.21;68.03;;
37223;Laerm;28026;48.562;14.440;2022-08-03T07:29:47;43.69;37.52;60.74;;
37223;Laerm;28026;48.562;14.440;2022-08-03T07:32:18;42.83;37.70;58.76;;
37223;Laerm;28026;48.562;14.440;2022-08-03T07:34:49;42.61;36.91;66.83;;
37223;Laerm;28026;48.562;14.440;2022-08-03T07:37:20;42.15;35.94;57.78;;
37223;Laerm;28026;48.562;14.440;2022-08-03T07:39:51;41.19;34.31;62.32;;
37223;Laerm;28026;48.562;14.440;2022-08-03T07:42:22;43.45;35.66;63.99;;
37223;Laerm;28026;48.562;14.440;2022-08-03T07:44:54;43.76;37.32;69.26;;
37223;Laerm;28026;48.562;14.440;2022-08-03T07:47:29;41.69;36.91;57.31;;
37223;Laerm;28026;48.562;14.440;2022-08-03T07:50:00;42.66;37.12;63.52;;
37223;Laerm;28026;48.562;14.440;2022-08-03T07:52:31;43.05;37.32;62.28;;
37223;Laerm;28026;48.562;14.440;2022-08-03T07:55:22;43.64;35.04;69.17;;
37223;Laerm;28026;48.562;14.440;2022-08-03T07:58:10;43.53;36.98;64.34;;
37223;Laerm;28026;48.562;14.440;2022-08-03T08:00:52;40.91;36.45;61.57;;
37223;Laerm;28026;48.562;14.440;2022-08-03T08:03:23;41.69;37.70;58.47;;
37223;Laerm;28026;48.562;14.440;2022-08-03T08:05:56;45.56;37.32;71.48;;
37223;Laerm;28026;48.562;14.440;2022-08-03T08:08:27;41.31;37.32;49.36;;
37223;Laerm;28026;48.562;14.440;2022-08-03T08:10:58;41.87;37.32;61.46;;
37223;Laerm;28026;48.562;14.440;2022-08-03T08:13:29;42.21;37.12;62.17;;
37223;Laerm;28026;48.562;14.440;2022-08-03T08:16:00;43.76;36.45;67.18;;
37223;Laerm;28026;48.562;14.440;2022-08-03T08:18:31;41.42;37.12;58.81;;
37223;Laerm;28026;48.562;14.440;2022-08-03T08:21:02;46.13;36.69;76.25;;
37223;Laerm;28026;48.562;14.440;2022-08-03T08:23:33;42.95;37.70;61.75;;
37223;Laerm;28026;48.562;14.440;2022-08-03T08:26:04;52.72;35.94;79.11;;
37223;Laerm;28026;48.562;14.440;2022-08-03T08:28:35;56.68;37.88;71.32;;
37223;Laerm;28026;48.562;14.440;2022-08-03T08:31:06;57.09;36.91;82.11;;
37223;Laerm;28026;48.562;14.440;2022-08-03T08:33:37;46.10;38.05;69.12;;
37223;Laerm;28026;48.562;14.440;2022-08-03T08:36:08;49.17;38.21;76.00;;
37223;Laerm;28026;48.562;14.440;2022-08-03T08:38:39;50.31;37.32;82.24;;
37223;Laerm;28026;48.562;14.440;2022-08-03T08:41:14;43.37;38.52;66.12;;
37223;Laerm;28026;48.562;14.440;2022-08-03T08:43:45;51.10;37.52;74.20;;
37223;Laerm;28026;48.562;14.440;2022-08-03T08:46:19;45.83;36.45;69.57;;
37223;Laerm;28026;48.562;14.440;2022-08-03T08:48:52;46.08;37.70;74.86;;
37223;Laerm;28026;48.562;14.440;2022-08-03T08:51:30;51.33;38.05;81.61;;
37223;Laerm;28026;48.562;14.440;2022-08-03T08:54:07;42.90;37.88;64.47;;
37223;Laerm;28026;48.562;14.440;2022-08-03T08:56:39;42.33;36.45;63.42;;
37223;Laerm;28026;48.562;14.440;2022-08-03T08:59:11;47.36;37.32;70.61;;
37223;Laerm;28026;48.562;14.440;2022-08-03T09:01:43;42.88;38.05;65.07;;
37223;Laerm;28026;48.562;14.440;2022-08-03T09:04:14;51.70;36.91;79.80;;
37223;Laerm;28026;48.562;14.440;2022-08-03T09:06:45;56.37;37.12;81.00;;
37223;Laerm;28026;48.562;14.440;2022-08-03T09:09:16;61.51;38.95;84.33;;
37223;Laerm;28026;48.562;14.440;2022-08-03T09:11:48;58.85;38.67;76.85;;
37223;Laerm;28026;48.562;14.440;2022-08-03T09:14:19;50.43;37.52;71.67;;
37223;Laerm;28026;48.562;14.440;2022-08-03T09:17:00;54.14;38.05;75.77;;
37223;Laerm;28026;48.562;14.440;2022-08-03T09:19:34;63.02;37.12;83.00;;
37223;Laerm;28026;48.562;14.440;2022-08-03T09:22:17;55.37;36.69;77.26;;
37223;Laerm;28026;48.562;14.440;2022-08-03T09:25:05;53.61;36.91;81.00;;
37223;Laerm;28026;48.562;14.440;2022-08-03T09:27:45;48.16;38.67;70.73;;
37223;Laerm;28026;48.562;14.440;2022-08-03T09:30:18;61.10;38.05;87.89;;
37223;Laerm;28026;48.562;14.440;2022-08-03T09:32:49;47.76;37.52;72.08;;
37223;Laerm;28026;48.562;14.440;2022-08-03T09:35:26;45.01;35.94;64.10;;
37223;Laerm;28026;48.562;14.440;2022-08-03T09:40:45;57.46;38.67;75.77;;
37223;Laerm;28026;48.562;14.440;2022-08-03T09:43:17;58.93;37.87;81.25;;
37223;Laerm;28026;48.562;14.440;2022-08-03T09:45:48;66.18;38.21;92.31;;
37223;Laerm;28026;48.562;14.440;2022-08-03T09:48:24;48.92;38.37;69.01;;
37223;Laerm;28026;48.562;14.440;2022-08-03T09:50:59;56.59;38.05;83.67;;
37223;Laerm;28026;48.562;14.440;2022-08-03T09:53:42;47.80;37.52;66.46;;
37223;Laerm;28026;48.562;14.440;2022-08-03T09:56:13;47.85;38.21;65.74;;
37223;Laerm;28026;48.562;14.440;2022-08-03T09:58:46;46.28;38.67;65.84;;
37223;Laerm;28026;48.562;14.440;2022-08-03T10:01:17;49.06;37.12;69.29;;
37223;Laerm;28026;48.562;14.440;2022-08-03T10:03:57;50.20;37.52;73.73;;
37223;Laerm;28026;48.562;14.440;2022-08-03T10:06:29;50.68;37.32;70.10;;
37223;Laerm;28026;48.562;14.440;2022-08-03T10:09:15;50.10;37.52;74.75;;
37223;Laerm;28026;48.562;14.440;2022-08-03T10:11:46;46.75;37.52;73.54;;
37223;Laerm;28026;48.562;14.440;2022-08-03T10:14:17;48.16;36.91;72.66;;
37223;Laerm;28026;48.562;14.440;2022-08-03T10:16:49;44.39;37.52;59.04;;
37223;Laerm;28026;48.562;14.440;2022-08-03T10:19:20;47.28;38.05;71.72;;
37223;Laerm;28026;48.562;14.440;2022-08-03T10:22:03;44.05;37.52;71.25;;
37223;Laerm;28026;48.562;14.440;2022-08-03T10:24:51;46.37;37.70;65.37;;
37223;Laerm;28026;48.562;14.440;2022-08-03T10:27:32;57.33;38.21;83.07;;
37223;Laerm;28026;48.562;14.440;2022-08-03T10:30:10;50.71;37.53;77.14;;
37223;Laerm;28026;48.562;14.440;2022-08-03T10:33:05;51.42;38.37;71.72;;
37223;Laerm;28026;48.562;14.440;2022-08-03T10:35:41;45.70;37.88;65.17;;
37223;Laerm;28026;48.562;14.440;2022-08-03T10:38:22;49.73;37.88;76.14;;
37223;Laerm;28026;48.562;14.440;2022-08-03T10:40:55;51.14;38.81;78.08;;
37223;Laerm;28026;48.562;14.440;2022-08-03T10:43:58;45.97;37.88;71.00;;
37223;Laerm;28026;48.562;14.440;2022-08-03T10:46:35;51.08;37.70;83.04;;
37223;Laerm;28026;48.562;14.440;2022-08-03T10:49:17;49.06;37.52;78.79;;
37223;Laerm;28026;48.562;14.440;2022-08-03T10:51:49;51.86;36.20;74.13;;
37223;Laerm;28026;48.562;14.440;2022-08-03T10:54:43;55.19;36.34;83.74;;
37223;Laerm;28026;48.562;14.440;2022-08-03T10:57:53;53.35;37.12;79.29;;
37223;Laerm;28026;48.562;14.440;2022-08-03T11:00:27;46.26;38.05;70.45;;
37223;Laerm;28026;48.562;14.440;2022-08-03T11:03:12;55.15;36.69;80.89;;
37223;Laerm;28026;48.562;14.440;2022-08-03T11:05:48;56.32;37.12;78.32;;
37223;Laerm;28026;48.562;14.440;2022-08-03T11:14:17;61.19;35.66;85.45;;
37223;Laerm;28026;48.562;14.440;2022-08-03T11:17:08;57.22;37.32;80.64;;
37223;Laerm;28026;48.562;14.440;2022-08-03T11:19:51;64.54;36.20;97.55;;
37223;Laerm;28026;48.562;14.440;2022-08-03T11:22:22;59.70;35.04;89.94;;
37223;Laerm;28026;48.562;14.440;2022-08-03T11:27:34;65.93;35.66;88.24;;
37223;Laerm;28026;48.562;14.440;2022-08-03T11:30:23;71.19;36.20;95.55;;
37223;Laerm;28026;48.562;14.440;2022-08-03T11:32:59;70.81;36.91;93.95;;
37223;Laerm;28026;48.562;14.440;2022-08-03T11:35:34;62.76;36.69;86.82;;
37223;Laerm;28026;48.562;14.440;2022-08-03T11:38:08;58.73;37.70;81.52;;
37223;Laerm;28026;48.562;14.440;2022-08-03T11:41:32;59.74;39.08;85.91;;
37223;Laerm;28026;48.562;14.440;2022-08-03T11:44:04;50.29;38.37;73.77;;
37223;Laerm;28026;48.562;14.440;2022-08-03T11:46:37;51.32;37.12;74.42;;
37223;Laerm;28026;48.562;14.440;2022-08-03T11:49:10;52.57;38.05;74.70;;
37223;Laerm;28026;48.562;14.440;2022-08-03T11:51:41;58.80;37.70;79.73;;
37223;Laerm;28026;48.562;14.440;2022-08-03T11:54:12;63.82;36.91;89.63;;
37223;Laerm;28026;48.562;14.440;2022-08-03T11:56:49;61.08;38.21;78.99;;
37223;Laerm;28026;48.562;14.440;2022-08-03T11:59:36;49.05;36.91;77.93;;
37223;Laerm;28026;48.562;14.440;2022-08-03T12:02:12;53.40;37.52;74.15;;
37223;Laerm;28026;48.562;14.440;2022-08-03T12:04:58;60.98;37.12;83.52;;
37223;Laerm;28026;48.562;14.440;2022-08-03T12:07:32;59.04;38.37;83.98;;
37223;Laerm;28026;48.562;14.440;2022-08-03T12:10:14;51.74;38.05;76.97;;
37223;Laerm;28026;48.562;14.440;2022-08-03T12:12:54;50.22;38.37;74.38;;
37223;Laerm;28026;48.562;14.440;2022-08-03T12:15:31;52.74;37.88;77.90;;
37223;Laerm;28026;48.562;14.440;2022-08-03T12:18:18;57.59;38.95;80.46;;
37223;Laerm;28026;48.562;14.440;2022-08-03T12:20:52;57.53;37.52;78.79;;
37223;Laerm;28026;48.562;14.440;2022-08-03T12:23:34;52.55;37.53;73.11;;
37223;Laerm;28026;48.562;14.440;2022-08-03T12:26:09;55.28;37.52;79.15;;
37223;Laerm;28026;48.562;14.440;2022-08-03T12:28:48;58.00;37.70;82.04;;
37223;Laerm;28026;48.562;14.440;2022-08-03T12:31:19;59.42;39.46;83.60;;
37223;Laerm;28026;48.562;14.440;2022-08-03T12:34:04;59.17;39.34;87.23;;
37223;Laerm;28026;48.562;14.440;2022-08-03T12:36:36;60.48;38.52;79.80;;
37223;Laerm;28026;48.562;14.440;2022-08-03T12:39:09;54.88;37.52;76.75;;
37223;Laerm;28026;48.562;14.440;2022-08-03T12:41:41;50.99;35.94;75.75;;
37223;Laerm;28026;48.562;14.440;2022-08-03T12:44:12;58.66;37.32;82.12;;
37223;Laerm;28026;48.562;14.440;2022-08-03T12:46:43;52.63;36.45;72.22;;
37223;Laerm;28026;48.562;14.440;2022-08-03T12:49:15;54.85;37.12;78.02;;
37223;Laerm;28026;48.562;14.440;2022-08-03T12:54:28;53.61;36.69;77.89;;
37223;Laerm;28026;48.562;14.440;2022-08-03T12:57:10;51.89;36.69;77.09;;
37223;Laerm;28026;48.562;14.440;2022-08-03T12:59:45;54.01;36.45;74.85;;
37223;Laerm;28026;48.562;14.440;2022-08-03T13:02:24;54.44;36.45;76.72;;
37223;Laerm;28026;48.562;14.440;2022-08-03T13:04:55;50.05;37.70;68.33;;
37223;Laerm;28026;48.562;14.440;2022-08-03T13:07:26;50.02;38.37;70.66;;
37223;Laerm;28026;48.562;14.440;2022-08-03T13:09:57;47.55;37.70;68.29;;
37223;Laerm;28026;48.562;14.440;2022-08-03T13:12:28;49.76;38.05;68.41;;
37223;Laerm;28026;48.562;14.440;2022-08-03T13:15:00;52.37;38.52;74.52;;
37223;Laerm;28026;48.562;14.440;2022-08-03T13:17:31;52.73;37.32;76.01;;
37223;Laerm;28026;48.562;14.440;2022-08-03T13:20:03;65.30;36.20;89.88;;
37223;Laerm;28026;48.562;14.440;2022-08-03T13:22:34;52.37;36.20;75.40;;
37223;Laerm;28026;48.562;14.440;2022-08-03T13:25:06;58.40;38.05;80.88;;
37223;Laerm;28026;48.562;14.440;2022-08-03T13:27:38;65.94;37.17;83.54;;
37223;Laerm;28026;48.562;14.440;2022-08-03T13:30:10;54.75;37.70;77.79;;
37223;Laerm;28026;48.562;14.440;2022-08-03T13:32:41;58.77;38.05;84.88;;
37223;Laerm;28026;48.562;14.440;2022-08-03T13:35:12;50.49;36.91;68.59;;
37223;Laerm;28026;48.562;14.440;2022-08-03T13:37:44;48.99;37.52;69.86;;
37223;Laerm;28026;48.562;14.440;2022-08-03T13:40:15;55.10;37.32;77.94;;
37223;Laerm;28026;48.562;14.440;2022-08-03T13:42:46;61.34;37.12;88.51;;
37223;Laerm;28026;48.562;14.440;2022-08-03T13:45:17;56.32;36.20;83.69;;
37223;Laerm;28026;48.562;14.440;2022-08-03T13:47:48;46.49;38.81;67.62;;
37223;Laerm;28026;48.562;14.440;2022-08-03T13:50:19;49.02;38.21;72.72;;
37223;Laerm;28026;48.562;14.440;2022-08-03T13:52:50;54.36;37.52;77.23;;
37223;Laerm;28026;48.562;14.440;2022-08-03T13:55:21;50.23;36.45;72.65;;
37223;Laerm;28026;48.562;14.440;2022-08-03T13:57:52;51.50;36.69;78.92;;
37223;Laerm;28026;48.562;14.440;2022-08-03T14:00:23;50.59;37.32;75.75;;
37223;Laerm;28026;48.562;14.440;2022-08-03T14:02:59;54.30;37.52;81.96;;
37223;Laerm;28026;48.562;14.440;2022-08-03T14:05:31;49.07;36.91;78.34;;
37223;Laerm;28026;48.562;14.440;2022-08-03T14:08:02;61.58;38.37;88.34;;
37223;Laerm;28026;48.562;14.440;2022-08-03T14:10:42;53.08;37.12;72.58;;
37223;Laerm;28026;48.562;14.440;2022-08-03T14:13:14;53.39;37.70;73.26;;
37223;Laerm;28026;48.562;14.440;2022-08-03T14:15:46;56.34;36.69;77.12;;
37223;Laerm;28026;48.562;14.440;2022-08-03T14:18:21;57.89;35.66;86.25;;
37223;Laerm;28026;48.562;14.440;2022-08-03T14:20:52;48.90;38.37;72.02;;
37223;Laerm;28026;48.562;14.440;2022-08-03T14:23:24;51.55;37.70;71.47;;
37223;Laerm;28026;48.562;14.440;2022-08-03T14:25:55;49.16;36.91;77.09;;
37223;Laerm;28026;48.562;14.440;2022-08-03T14:28:26;43.53;38.67;60.95;;
37223;Laerm;28026;48.562;14.440;2022-08-03T14:30:59;46.83;39.08;74.95;;
37223;Laerm;28026;48.562;14.440;2022-08-03T14:33:30;49.66;36.91;78.29;;